sensor_id;sensor_type;location;lat;lon;timestamp;temperature;humidity
20366;DHT22;10341;49.894;8.822;2022-10-31T00:03:37;8.50;99.90
20366;DHT22;10341;49.894;8.822;2022-10-31T00:08:59;8.50;99.90
20366;DHT22;10341;49.894;8.822;2022-10-31T00:14:18;8.40;99.90
20366;DHT22;10341;49.894;8.822;2022-10-31T00:19:38;8.40;99.90
20366;DHT22;10341;49.894;8.822;2022-10-31T00:24:57;8.40;99.90
20366;DHT22;10341;49.894;8.822;2022-10-31T00:30:16;8.40;99.90
20366;DHT22;10341;49.894;8.822;2022-10-31T00:35:36;8.40;99.90
20366;DHT22;10341;49.894;8.822;2022-10-31T00:40:55;8.30;99.90
20366;DHT22;10341;49.894;8.822;2022-10-31T00:46:15;8.30;99.90
20366;DHT22;10341;49.894;8.822;2022-10-31T00:51:34;8.30;99.90
20366;DHT22;10341;49.894;8.822;2022-10-31T00:56:53;8.20;99.90
20366;DHT22;10341;49.894;8.822;2022-10-31T01:02:13;8.20;99.90
20366;DHT22;10341;49.894;8.822;2022-10-31T01:07:37;8.10;99.90
20366;DHT22;10341;49.894;8.822;2022-10-31T01:12:58;8.10;99.90
20366;DHT22;10341;49.894;8.822;2022-10-31T01:18:17;8.00;99.90
20366;DHT22;10341;49.894;8.822;2022-10-31T01:23:37;8.00;99.90
20366;DHT22;10341;49.894;8.822;2022-10-31T01:29:06;8.00;99.90
20366;DHT22;10341;49.894;8.822;2022-10-31T01:34:27;8.10;99.90
20366;DHT22;10341;49.894;8.822;2022-10-31T01:39:48;8.10;99.90
20366;DHT22;10341;49.894;8.822;2022-10-31T01:45:09;8.00;99.90
20366;DHT22;10341;49.894;8.822;2022-10-31T01:50:35;7.90;99.90
20366;DHT22;10341;49.894;8.822;2022-10-31T01:55:55;7.80;99.90
20366;DHT22;10341;49.894;8.822;2022-10-31T02:01:16;7.70;99.90
20366;DHT22;10341;49.894;8.822;2022-10-31T02:06:44;7.70;99.90
20366;DHT22;10341;49.894;8.822;2022-10-31T02:12:05;7.70;99.90
20366;DHT22;10341;49.894;8.822;2022-10-31T02:17:25;7.90;99.90
20366;DHT22;10341;49.894;8.822;2022-10-31T02:34:01;7.80;99.90
20366;DHT22;10341;49.894;8.822;2022-10-31T02:39:28;7.80;99.90
20366;DHT22;10341;49.894;8.822;2022-10-31T02:45:28;7.80;99.90
20366;DHT22;10341;49.894;8.822;2022-10-31T02:50:56;7.80;99.90
20366;DHT22;10341;49.894;8.822;2022-10-31T02:56:17;7.80;99.90
20366;DHT22;10341;49.894;8.822;2022-10-31T03:07:54;7.80;99.90
20366;DHT22;10341;49.894;8.822;2022-10-31T03:13:46;7.80;99.90
20366;DHT22;10341;49.894;8.822;2022-10-31T03:19:10;7.80;99.90
20366;DHT22;10341;49.894;8.822;2022-10-31T03:24:34;7.70;99.90
20366;DHT22;10341;49.894;8.822;2022-10-31T03:29:57;7.70;99.90
20366;DHT22;10341;49.894;8.822;2022-10-31T03:35:19;7.70;99.90
20366;DHT22;10341;49.894;8.822;2022-10-31T03:40:40;7.80;99.90
20366;DHT22;10341;49.894;8.822;2022-10-31T03:46:01;7.80;99.90
20366;DHT22;10341;49.894;8.822;2022-10-31T03:51:43;7.70;99.90
20366;DHT22;10341;49.894;8.822;2022-10-31T03:57:18;7.70;99.90
20366;DHT22;10341;49.894;8.822;2022-10-31T04:02:52;7.60;99.90
20366;DHT22;10341;49.894;8.822;2022-10-31T04:08:17;7.60;99.90
20366;DHT22;10341;49.894;8.822;2022-10-31T04:13:39;7.80;99.90
20366;DHT22;10341;49.894;8.822;2022-10-31T04:19:06;7.80;99.90
20366;DHT22;10341;49.894;8.822;2022-10-31T04:24:26;7.80;99.90
20366;DHT22;10341;49.894;8.822;2022-10-31T04:29:45;7.80;99.90
20366;DHT22;10341;49.894;8.822;2022-10-31T04:35:06;7.80;99.90
20366;DHT22;10341;49.894;8.822;2022-10-31T04:40:25;7.80;99.90
20366;DHT22;10341;49.894;8.822;2022-10-31T04:46:11;7.70;99.90
20366;DHT22;10341;49.894;8.822;2022-10-31T04:51:31;7.60;99.90
20366;DHT22;10341;49.894;8.822;2022-10-31T04:56:50;7.60;99.90
20366;DHT22;10341;49.894;8.822;2022-10-31T05:02:14;7.50;99.90
20366;DHT22;10341;49.894;8.822;2022-10-31T05:13:44;7.60;99.90
20366;DHT22;10341;49.894;8.822;2022-10-31T05:19:06;7.70;99.90
20366;DHT22;10341;49.894;8.822;2022-10-31T05:24:48;7.70;99.90
20366;DHT22;10341;49.894;8.822;2022-10-31T05:30:08;7.90;99.90
20366;DHT22;10341;49.894;8.822;2022-10-31T05:35:30;7.80;99.90
20366;DHT22;10341;49.894;8.822;2022-10-31T05:41:17;7.70;99.90
20366;DHT22;10341;49.894;8.822;2022-10-31T05:46:39;7.60;99.90
20366;DHT22;10341;49.894;8.822;2022-10-31T05:52:18;7.50;99.90
20366;DHT22;10341;49.894;8.822;2022-10-31T05:57:46;7.50;99.90
20366;DHT22;10341;49.894;8.822;2022-10-31T06:03:07;7.40;99.90
20366;DHT22;10341;49.894;8.822;2022-10-31T06:08:40;7.40;99.90
20366;DHT22;10341;49.894;8.822;2022-10-31T06:14:06;7.40;99.90
20366;DHT22;10341;49.894;8.822;2022-10-31T06:19:38;7.40;99.90
20366;DHT22;10341;49.894;8.822;2022-10-31T06:24:58;7.40;99.90
20366;DHT22;10341;49.894;8.822;2022-10-31T06:30:27;7.40;99.90
20366;DHT22;10341;49.894;8.822;2022-10-31T06:35:46;7.40;99.90
20366;DHT22;10341;49.894;8.822;2022-10-31T06:41:06;7.40;99.90
20366;DHT22;10341;49.894;8.822;2022-10-31T06:46:37;7.50;99.90
20366;DHT22;10341;49.894;8.822;2022-10-31T06:52:15;7.60;99.90
20366;DHT22;10341;49.894;8.822;2022-10-31T06:57:34;7.70;99.90
20366;DHT22;10341;49.894;8.822;2022-10-31T07:02:59;7.80;99.90
20366;DHT22;10341;49.894;8.822;2022-10-31T07:08:19;8.00;99.90
20366;DHT22;10341;49.894;8.822;2022-10-31T07:13:38;8.30;99.90
20366;DHT22;10341;49.894;8.822;2022-10-31T07:19:00;8.80;99.90
20366;DHT22;10341;49.894;8.822;2022-10-31T07:24:19;9.30;99.90
20366;DHT22;10341;49.894;8.822;2022-10-31T07:29:59;9.70;99.90
20366;DHT22;10341;49.894;8.822;2022-10-31T07:35:22;10.20;99.90
20366;DHT22;10341;49.894;8.822;2022-10-31T07:40:52;10.60;99.90
20366;DHT22;10341;49.894;8.822;2022-10-31T07:46:12;10.90;99.90
20366;DHT22;10341;49.894;8.822;2022-10-31T07:51:40;11.40;99.90
20366;DHT22;10341;49.894;8.822;2022-10-31T07:57:19;11.50;99.90
20366;DHT22;10341;49.894;8.822;2022-10-31T08:02:39;11.70;99.90
20366;DHT22;10341;49.894;8.822;2022-10-31T08:08:20;11.70;99.90
20366;DHT22;10341;49.894;8.822;2022-10-31T08:13:40;11.80;99.90
20366;DHT22;10341;49.894;8.822;2022-10-31T08:19:04;12.00;99.90
20366;DHT22;10341;49.894;8.822;2022-10-31T08:24:29;12.20;99.90
20366;DHT22;10341;49.894;8.822;2022-10-31T08:29:50;12.30;99.90
20366;DHT22;10341;49.894;8.822;2022-10-31T08:35:10;12.50;99.90
20366;DHT22;10341;49.894;8.822;2022-10-31T08:40:49;13.30;99.90
20366;DHT22;10341;49.894;8.822;2022-10-31T08:46:08;14.50;99.90
20366;DHT22;10341;49.894;8.822;2022-10-31T08:51:28;15.80;99.90
20366;DHT22;10341;49.894;8.822;2022-10-31T08:56:53;16.10;99.90
20366;DHT22;10341;49.894;8.822;2022-10-31T09:02:26;16.10;99.90
20366;DHT22;10341;49.894;8.822;2022-10-31T09:07:54;16.70;99.90
20366;DHT22;10341;49.894;8.822;2022-10-31T09:13:17;17.50;99.90
20366;DHT22;10341;49.894;8.822;2022-10-31T09:18:55;17.60;99.90
20366;DHT22;10341;49.894;8.822;2022-10-31T09:24:15;17.30;99.90
20366;DHT22;10341;49.894;8.822;2022-10-31T09:29:35;17.50;99.90
20366;DHT22;10341;49.894;8.822;2022-10-31T09:34:56;17.30;99.90
20366;DHT22;10341;49.894;8.822;2022-10-31T09:40:16;17.80;99.90
20366;DHT22;10341;49.894;8.822;2022-10-31T09:45:55;18.10;99.90
20366;DHT22;10341;49.894;8.822;2022-10-31T09:51:34;18.00;99.90
20366;DHT22;10341;49.894;8.822;2022-10-31T09:57:17;18.20;99.90
20366;DHT22;10341;49.894;8.822;2022-10-31T10:02:51;18.30;99.90
20366;DHT22;10341;49.894;8.822;2022-10-31T10:08:25;19.30;99.90
20366;DHT22;10341;49.894;8.822;2022-10-31T10:25:20;21.40;99.90
20366;DHT22;10341;49.894;8.822;2022-10-31T10:30:50;20.90;99.90
20366;DHT22;10341;49.894;8.822;2022-10-31T10:36:18;21.20;99.90
20366;DHT22;10341;49.894;8.822;2022-10-31T10:41:49;21.70;99.90
20366;DHT22;10341;49.894;8.822;2022-10-31T10:47:38;22.00;99.90
20366;DHT22;10341;49.894;8.822;2022-10-31T10:53:01;21.60;99.90
20366;DHT22;10341;49.894;8.822;2022-10-31T10:58:26;20.90;99.90
20366;DHT22;10341;49.894;8.822;2022-10-31T11:03:45;21.30;99.90
20366;DHT22;10341;49.894;8.822;2022-10-31T11:09:10;22.10;99.90
20366;DHT22;10341;49.894;8.822;2022-10-31T11:14:30;23.20;99.90
20366;DHT22;10341;49.894;8.822;2022-10-31T11:20:03;24.60;99.90
20366;DHT22;10341;49.894;8.822;2022-10-31T11:25:24;25.60;99.90
20366;DHT22;10341;49.894;8.822;2022-10-31T11:30:50;25.80;99.90
20366;DHT22;10341;49.894;8.822;2022-10-31T11:36:25;25.10;99.90
20366;DHT22;10341;49.894;8.822;2022-10-31T11:41:45;24.80;99.90
20366;DHT22;10341;49.894;8.822;2022-10-31T11:47:05;24.10;99.90
20366;DHT22;10341;49.894;8.822;2022-10-31T11:52:31;23.10;99.90
20366;DHT22;10341;49.894;8.822;2022-10-31T11:57:52;22.20;99.90
20366;DHT22;10341;49.894;8.822;2022-10-31T12:08:42;21.80;99.90
20366;DHT22;10341;49.894;8.822;2022-10-31T12:31:32;21.50;99.90
20366;DHT22;10341;49.894;8.822;2022-10-31T12:48:26;21.50;99.90
20366;DHT22;10341;49.894;8.822;2022-10-31T12:54:08;21.40;99.90
20366;DHT22;10341;49.894;8.822;2022-10-31T12:59:38;21.40;99.90
20366;DHT22;10341;49.894;8.822;2022-10-31T13:05:12;20.90;99.90
20366;DHT22;10341;49.894;8.822;2022-10-31T13:10:42;20.90;99.90
20366;DHT22;10341;49.894;8.822;2022-10-31T13:16:28;20.90;99.90
20366;DHT22;10341;49.894;8.822;2022-10-31T13:22:07;20.70;99.90
20366;DHT22;10341;49.894;8.822;2022-10-31T13:27:42;20.50;99.90
20366;DHT22;10341;49.894;8.822;2022-10-31T13:44:01;19.90;99.90
20366;DHT22;10341;49.894;8.822;2022-10-31T13:49:37;19.80;99.90
20366;DHT22;10341;49.894;8.822;2022-10-31T13:54:57;19.60;99.90
20366;DHT22;10341;49.894;8.822;2022-10-31T14:05:38;19.20;99.90
20366;DHT22;10341;49.894;8.822;2022-10-31T14:10:57;19.10;99.90
20366;DHT22;10341;49.894;8.822;2022-10-31T14:16:20;19.00;99.90
20366;DHT22;10341;49.894;8.822;2022-10-31T14:21:45;18.90;99.90
20366;DHT22;10341;49.894;8.822;2022-10-31T14:32:43;18.70;99.90
20366;DHT22;10341;49.894;8.822;2022-10-31T14:38:19;18.90;99.90
20366;DHT22;10341;49.894;8.822;2022-10-31T14:55:00;19.40;99.90
20366;DHT22;10341;49.894;8.822;2022-10-31T15:00:21;19.40;99.90
20366;DHT22;10341;49.894;8.822;2022-10-31T15:05:52;19.20;99.90
20366;DHT22;10341;49.894;8.822;2022-10-31T15:11:15;18.90;99.90
20366;DHT22;10341;49.894;8.822;2022-10-31T15:16:39;18.50;99.90
20366;DHT22;10341;49.894;8.822;2022-10-31T15:22:00;18.10;99.90
20366;DHT22;10341;49.894;8.822;2022-10-31T15:27:20;17.60;99.90
20366;DHT22;10341;49.894;8.822;2022-10-31T15:32:44;17.20;99.90
20366;DHT22;10341;49.894;8.822;2022-10-31T15:38:04;16.90;99.90
20366;DHT22;10341;49.894;8.822;2022-10-31T15:43:23;16.50;99.90
20366;DHT22;10341;49.894;8.822;2022-10-31T15:48:47;16.30;99.90
20366;DHT22;10341;49.894;8.822;2022-10-31T15:54:12;16.00;99.90
20366;DHT22;10341;49.894;8.822;2022-10-31T15:59:32;15.80;99.90
20366;DHT22;10341;49.894;8.822;2022-10-31T16:04:59;15.70;99.90
20366;DHT22;10341;49.894;8.822;2022-10-31T16:10:24;15.60;99.90
20366;DHT22;10341;49.894;8.822;2022-10-31T16:15:56;15.60;99.90
20366;DHT22;10341;49.894;8.822;2022-10-31T16:21:27;15.50;99.90
20366;DHT22;10341;49.894;8.822;2022-10-31T16:26:49;15.30;99.90
20366;DHT22;10341;49.894;8.822;2022-10-31T16:32:31;15.30;99.90
20366;DHT22;10341;49.894;8.822;2022-10-31T16:37:51;15.20;99.90
20366;DHT22;10341;49.894;8.822;2022-10-31T16:43:12;15.20;99.90
20366;DHT22;10341;49.894;8.822;2022-10-31T16:48:32;15.30;99.90
20366;DHT22;10341;49.894;8.822;2022-10-31T16:53:52;15.40;99.90
20366;DHT22;10341;49.894;8.822;2022-10-31T16:59:11;15.30;99.90
20366;DHT22;10341;49.894;8.822;2022-10-31T17:04:30;15.20;99.90
20366;DHT22;10341;49.894;8.822;2022-10-31T17:09:49;15.30;99.90
20366;DHT22;10341;49.894;8.822;2022-10-31T17:15:23;15.30;99.90
20366;DHT22;10341;49.894;8.822;2022-10-31T17:20:44;15.30;99.90
20366;DHT22;10341;49.894;8.822;2022-10-31T17:26:03;15.30;99.90
20366;DHT22;10341;49.894;8.822;2022-10-31T17:31:29;15.10;99.90
20366;DHT22;10341;49.894;8.822;2022-10-31T17:36:50;15.00;99.90
20366;DHT22;10341;49.894;8.822;2022-10-31T17:42:10;14.90;99.90
20366;DHT22;10341;49.894;8.822;2022-10-31T17:47:29;14.90;99.90
20366;DHT22;10341;49.894;8.822;2022-10-31T17:52:48;14.90;99.90
20366;DHT22;10341;49.894;8.822;2022-10-31T17:58:08;14.80;99.90
20366;DHT22;10341;49.894;8.822;2022-10-31T18:03:31;14.70;99.90
20366;DHT22;10341;49.894;8.822;2022-10-31T18:08:50;14.60;99.90
20366;DHT22;10341;49.894;8.822;2022-10-31T18:14:09;14.40;99.90
20366;DHT22;10341;49.894;8.822;2022-10-31T18:19:29;14.20;99.90
20366;DHT22;10341;49.894;8.822;2022-10-31T18:24:48;13.90;99.90
20366;DHT22;10341;49.894;8.822;2022-10-31T18:30:07;13.80;99.90
20366;DHT22;10341;49.894;8.822;2022-10-31T18:35:26;13.70;99.90
20366;DHT22;10341;49.894;8.822;2022-10-31T18:40:45;13.60;99.90
20366;DHT22;10341;49.894;8.822;2022-10-31T18:46:08;13.40;99.90
20366;DHT22;10341;49.894;8.822;2022-10-31T18:51:28;13.20;99.90
20366;DHT22;10341;49.894;8.822;2022-10-31T18:56:48;13.10;99.90
20366;DHT22;10341;49.894;8.822;2022-10-31T19:02:09;13.10;99.90
20366;DHT22;10341;49.894;8.822;2022-10-31T19:07:30;13.00;99.90
20366;DHT22;10341;49.894;8.822;2022-10-31T19:12:49;12.90;99.90
20366;DHT22;10341;49.894;8.822;2022-10-31T19:18:08;12.70;99.90
20366;DHT22;10341;49.894;8.822;2022-10-31T19:23:27;12.80;99.90
20366;DHT22;10341;49.894;8.822;2022-10-31T19:28:47;12.90;99.90
20366;DHT22;10341;49.894;8.822;2022-10-31T19:34:06;12.80;99.90
20366;DHT22;10341;49.894;8.822;2022-10-31T19:39:25;12.70;99.90
20366;DHT22;10341;49.894;8.822;2022-10-31T19:44:45;12.80;99.90
20366;DHT22;10341;49.894;8.822;2022-10-31T19:50:04;12.90;99.90
20366;DHT22;10341;49.894;8.822;2022-10-31T19:55:23;12.80;99.90
20366;DHT22;10341;49.894;8.822;2022-10-31T20:00:42;12.80;99.90
20366;DHT22;10341;49.894;8.822;2022-10-31T20:06:03;12.70;99.90
20366;DHT22;10341;49.894;8.822;2022-10-31T20:11:24;12.60;99.90
20366;DHT22;10341;49.894;8.822;2022-10-31T20:16:45;12.60;99.90
20366;DHT22;10341;49.894;8.822;2022-10-31T20:22:04;12.60;99.90
20366;DHT22;10341;49.894;8.822;2022-10-31T20:27:24;12.40;99.90
20366;DHT22;10341;49.894;8.822;2022-10-31T20:32:42;12.20;99.90
20366;DHT22;10341;49.894;8.822;2022-10-31T20:38:02;12.30;99.90
20366;DHT22;10341;49.894;8.822;2022-10-31T20:43:23;12.50;99.90
20366;DHT22;10341;49.894;8.822;2022-10-31T20:48:42;12.40;99.90
20366;DHT22;10341;49.894;8.822;2022-10-31T20:54:01;12.40;99.90
20366;DHT22;10341;49.894;8.822;2022-10-31T20:59:21;12.30;99.90
20366;DHT22;10341;49.894;8.822;2022-10-31T21:04:41;12.40;99.90
20366;DHT22;10341;49.894;8.822;2022-10-31T21:10:00;13.40;99.90
20366;DHT22;10341;49.894;8.822;2022-10-31T21:15:20;12.30;99.90
20366;DHT22;10341;49.894;8.822;2022-10-31T21:20:40;12.30;99.90
20366;DHT22;10341;49.894;8.822;2022-10-31T21:26:14;12.30;99.90
20366;DHT22;10341;49.894;8.822;2022-10-31T21:31:35;12.10;99.90
20366;DHT22;10341;49.894;8.822;2022-10-31T21:36:55;12.00;99.90
20366;DHT22;10341;49.894;8.822;2022-10-31T21:42:14;12.10;99.90
20366;DHT22;10341;49.894;8.822;2022-10-31T21:47:33;11.90;99.90
20366;DHT22;10341;49.894;8.822;2022-10-31T21:52:52;11.80;99.90
20366;DHT22;10341;49.894;8.822;2022-10-31T21:58:12;11.70;99.90
20366;DHT22;10341;49.894;8.822;2022-10-31T22:03:34;11.70;99.90
20366;DHT22;10341;49.894;8.822;2022-10-31T22:08:56;11.60;99.90
20366;DHT22;10341;49.894;8.822;2022-10-31T22:14:16;11.50;99.90
20366;DHT22;10341;49.894;8.822;2022-10-31T22:19:35;11.50;99.90
20366;DHT22;10341;49.894;8.822;2022-10-31T22:24:55;11.60;99.90
20366;DHT22;10341;49.894;8.822;2022-10-31T22:30:14;11.60;99.90
20366;DHT22;10341;49.894;8.822;2022-10-31T22:35:33;11.70;99.90
20366;DHT22;10341;49.894;8.822;2022-10-31T22:40:57;11.60;99.90
20366;DHT22;10341;49.894;8.822;2022-10-31T22:46:19;11.50;99.90
20366;DHT22;10341;49.894;8.822;2022-10-31T22:51:39;11.40;99.90
20366;DHT22;10341;49.894;8.822;2022-10-31T22:56:59;11.20;99.90
20366;DHT22;10341;49.894;8.822;2022-10-31T23:02:18;11.20;99.90
20366;DHT22;10341;49.894;8.822;2022-10-31T23:07:39;11.10;99.90
20366;DHT22;10341;49.894;8.822;2022-10-31T23:12:59;11.10;99.90
20366;DHT22;10341;49.894;8.822;2022-10-31T23:18:38;11.00;99.90
20366;DHT22;10341;49.894;8.822;2022-10-31T23:23:57;11.10;99.90
20366;DHT22;10341;49.894;8.822;2022-10-31T23:29:17;11.10;99.90
20366;DHT22;10341;49.894;8.822;2022-10-31T23:34:36;11.10;99.90
20366;DHT22;10341;49.894;8.822;2022-10-31T23:39:55;11.10;99.90
20366;DHT22;10341;49.894;8.822;2022-10-31T23:45:15;11.10;99.90
20366;DHT22;10341;49.894;8.822;2022-10-31T23:50:34;11.10;99.90
20366;DHT22;10341;49.894;8.822;2022-10-31T23:55:54;11.10;99.90
